Flight Track Log - Related Links

Times and Time Zones

All times are in EDT time to prevent confusion due to time zone crossing. See the CCA985 flight status page for this flight to view local times or setup timezone preferences in your user account.


Time Position Orientation Groundspeed Altitude Reporting Facility
EDT Latitude Longitude Course Direction KTS MPH feet Rate Location/Type
Fri 08:55:00 AM 40.8075 117.2979 37° Northeast  Level FlightAware Approximate
Fri 08:56:00 AM 40.9111 117.4011 37° Northeast  Level FlightAware Approximate
Fri 08:57:00 AM 41.0146 117.5046 37° Northeast  Level FlightAware Approximate
Fri 08:58:00 AM 41.1179 117.6084 37° Northeast  Level FlightAware Approximate
Fri 08:59:00 AM 41.2212 117.7125 37° Northeast  Level FlightAware Approximate
Fri 09:00:00 AM 41.3244 117.8170 37° Northeast  Level FlightAware Approximate
Fri 09:01:00 AM 41.4275 117.9218 37° Northeast  Level FlightAware Approximate
Fri 09:02:00 AM 41.5305 118.0270 37° Northeast  Level FlightAware Approximate
Fri 09:03:00 AM 41.6334 118.1324 37° Northeast  Level FlightAware Approximate
Fri 09:04:00 AM 41.7272 118.2289 38° Northeast  Level FlightAware Approximate
Fri 09:05:00 AM 41.8299 118.3350 38° Northeast  Level FlightAware Approximate
Fri 09:06:00 AM 41.9326 118.4413 38° Northeast  Level FlightAware Approximate
Fri 09:07:00 AM 42.0352 118.5481 38° Northeast  Level FlightAware Approximate
Fri 09:08:00 AM 42.1376 118.6551 38° Northeast  Level FlightAware Approximate
Fri 09:09:00 AM 42.2400 118.7626 38° Northeast  Level FlightAware Approximate
Fri 09:10:00 AM 42.3423 118.8703 38° Northeast  Level FlightAware Approximate
Fri 09:11:00 AM 42.4444 118.9785 38° Northeast  Level FlightAware Approximate
Fri 09:12:00 AM 42.5460 119.0878 38° Northeast  Level FlightAware Approximate
Fri 09:13:00 AM 42.6475 119.1974 38° Northeast  Level FlightAware Approximate
Fri 09:14:00 AM 42.7489 119.3074 39° Northeast  Level FlightAware Approximate
Fri 09:15:00 AM 42.8501 119.4178 39° Northeast  Level FlightAware Approximate
Fri 09:16:00 AM 42.9513 119.5285 39° Northeast  Level FlightAware Approximate
Fri 09:17:00 AM 43.0524 119.6396 39° Northeast  Level FlightAware Approximate
Fri 09:18:00 AM 43.1533 119.7510 39° Northeast  Level FlightAware Approximate
Fri 09:19:00 AM 43.2542 119.8628 39° Northeast  Level FlightAware Approximate
Fri 09:20:00 AM 43.3549 119.9750 39° Northeast  Level FlightAware Approximate
Fri 09:21:00 AM 43.4555 120.0876 39° Northeast  Level FlightAware Approximate
Fri 09:22:00 AM 43.5561 120.2005 39° Northeast  Level FlightAware Approximate
Fri 09:23:00 AM 43.6565 120.3138 39° Northeast  Level FlightAware Approximate
Fri 09:24:00 AM 43.7568 120.4275 39° Northeast  Level FlightAware Approximate
Fri 09:25:00 AM 43.8569 120.5416 39° Northeast  Level FlightAware Approximate
Fri 09:26:00 AM 43.9570 120.6561 39° Northeast  Level FlightAware Approximate
Fri 09:27:00 AM 44.0570 120.7709 40° Northeast  Level FlightAware Approximate
Fri 09:28:00 AM 44.1568 120.8861 40° Northeast  Level FlightAware Approximate
Fri 09:29:00 AM 44.2565 121.0017 40° Northeast  Level FlightAware Approximate
Fri 09:30:00 AM 44.3561 121.1178 40° Northeast  Level FlightAware Approximate
Fri 09:31:00 AM 44.4556 121.2342 40° Northeast  Level FlightAware Approximate
Fri 09:32:00 AM 44.5550 121.3510 40° Northeast  Level FlightAware Approximate
Fri 09:33:00 AM 44.6542 121.4682 40° Northeast  Level FlightAware Approximate
Fri 09:34:00 AM 44.7534 121.5858 40° Northeast  Level FlightAware Approximate
Fri 09:35:00 AM 44.8524 121.7038 40° Northeast  Level FlightAware Approximate
Fri 09:36:00 AM 44.9512 121.8222 40° Northeast  Level FlightAware Approximate
Fri 09:37:00 AM 45.0500 121.9410 40° Northeast  Level FlightAware Approximate
Fri 09:38:00 AM 45.1487 122.0603 40° Northeast  Level FlightAware Approximate
Fri 09:39:00 AM 45.2472 122.1799 41° Northeast  Level FlightAware Approximate
Fri 09:40:00 AM 45.3456 122.3000 41° Northeast  Level FlightAware Approximate
Fri 09:41:00 AM 45.4439 122.4203 41° Northeast  Level FlightAware Approximate
Fri 09:42:00 AM 45.5423 122.5408 41° Northeast  Level FlightAware Approximate
Fri 09:43:00 AM 45.6405 122.6617 41° Northeast  Level FlightAware Approximate
Fri 09:44:00 AM 45.7386 122.7831 41° Northeast  Level FlightAware Approximate
Fri 09:45:00 AM 45.8366 122.9049 41° Northeast  Level FlightAware Approximate
Fri 09:46:00 AM 45.9345 123.0271 41° Northeast  Level FlightAware Approximate
Fri 09:47:00 AM 46.0322 123.1497 41° Northeast  Level FlightAware Approximate
Fri 09:48:00 AM 46.1298 123.2728 41° Northeast  Level FlightAware Approximate
Fri 09:49:00 AM 46.2273 123.3963 41° Northeast  Level FlightAware Approximate
Fri 09:50:00 AM 46.3246 123.5203 41° Northeast  Level FlightAware Approximate
Fri 09:51:00 AM 46.4218 123.6447 41° Northeast  Level FlightAware Approximate
Fri 09:52:00 AM 46.5188 123.7695 41° Northeast  Level FlightAware Approximate
Fri 09:53:00 AM 46.6158 123.8948 42° Northeast  Level FlightAware Approximate
Fri 09:54:00 AM 46.7125 124.0206 42° Northeast  Level FlightAware Approximate
Fri 09:55:00 AM 46.8092 124.1468 42° Northeast  Level FlightAware Approximate
Fri 09:56:00 AM 46.9057 124.2734 42° Northeast  Level FlightAware Approximate
Fri 09:57:00 AM 47.0021 124.4005 42° Northeast  Level FlightAware Approximate
Fri 09:58:00 AM 47.0983 124.5281 42° Northeast  Level FlightAware Approximate
Fri 09:59:00 AM 47.1944 124.6561 42° Northeast  Level FlightAware Approximate
Fri 10:00:00 AM 47.2903 124.7846 42° Northeast  Level FlightAware Approximate
Fri 10:01:00 AM 47.3861 124.9135 42° Northeast  Level FlightAware Approximate
Fri 10:02:00 AM 47.4818 125.0429 42° Northeast  Level FlightAware Approximate
Fri 10:03:00 AM 47.5773 125.1728 43° Northeast  Level FlightAware Approximate
Fri 10:04:00 AM 47.6726 125.3032 43° Northeast  Level FlightAware Approximate
Fri 10:05:00 AM 47.7678 125.4340 43° Northeast  Level FlightAware Approximate
Fri 10:06:00 AM 47.8629 125.5653 43° Northeast  Level FlightAware Approximate
Fri 10:07:00 AM 47.9578 125.6972 43° Northeast  Level FlightAware Approximate
Fri 10:08:00 AM 48.0526 125.8294 43° Northeast  Level FlightAware Approximate
Fri 10:09:00 AM 48.1472 125.9622 43° Northeast  Level FlightAware Approximate
Fri 10:10:00 AM 48.2416 126.0955 43° Northeast  Level FlightAware Approximate
Fri 10:11:00 AM 48.3359 126.2292 43° Northeast  Level FlightAware Approximate
Fri 10:12:00 AM 48.4301 126.3635 43° Northeast  Level FlightAware Approximate
Fri 10:13:00 AM 48.5241 126.4983 43° Northeast  Level FlightAware Approximate
Fri 10:14:00 AM 48.6179 126.6335 44° Northeast  Level FlightAware Approximate
Fri 10:15:00 AM 48.7116 126.7693 44° Northeast  Level FlightAware Approximate
Fri 10:16:00 AM 48.8051 126.9055 44° Northeast  Level FlightAware Approximate
Fri 10:17:00 AM 48.8984 127.0423 44° Northeast  Level FlightAware Approximate
Fri 10:18:00 AM 48.9916 127.1796 44° Northeast  Level FlightAware Approximate
Fri 10:19:00 AM 49.0846 127.3174 44° Northeast  Level FlightAware Approximate
Fri 10:20:00 AM 49.1775 127.4557 44° Northeast  Level FlightAware Approximate
Fri 10:21:00 AM 49.2702 127.5945 44° Northeast  Level FlightAware Approximate
Fri 10:22:00 AM 49.3627 127.7339 44° Northeast  Level FlightAware Approximate
Fri 10:23:00 AM 49.4551 127.8738 45° Northeast  Level FlightAware Approximate
Fri 10:24:00 AM 49.5472 128.0142 45° Northeast  Level FlightAware Approximate
Fri 10:25:00 AM 49.6393 128.1551 45° Northeast  Level FlightAware Approximate
Fri 10:26:00 AM 49.7311 128.2966 45° Northeast  Level FlightAware Approximate
Fri 10:27:00 AM 49.8228 128.4386 45° Northeast  Level FlightAware Approximate
Fri 10:28:00 AM 49.9143 128.5811 45° Northeast  Level FlightAware Approximate
Fri 10:29:00 AM 50.0056 128.7242 45° Northeast  Level FlightAware Approximate
Fri 10:30:00 AM 50.0967 128.8679 45° Northeast  Level FlightAware Approximate
Fri 10:31:00 AM 50.1877 129.0120 45° Northeast  Level FlightAware Approximate
Fri 10:32:00 AM 50.2785 129.1568 46° Northeast  Level FlightAware Approximate
Fri 10:33:00 AM 50.3691 129.3020 46° Northeast  Level FlightAware Approximate
Fri 10:34:00 AM 50.4595 129.4479 46° Northeast  Level FlightAware Approximate
Fri 10:35:00 AM 50.5498 129.5943 46° Northeast  Level FlightAware Approximate
Fri 10:36:00 AM 50.6398 129.7413 46° Northeast  Level FlightAware Approximate
Fri 10:37:00 AM 50.7297 129.8888 46° Northeast  Level FlightAware Approximate
Fri 10:38:00 AM 50.8194 130.0369 46° Northeast  Level FlightAware Approximate
Fri 10:39:00 AM 50.9089 130.1855 46° Northeast  Level FlightAware Approximate
Fri 10:39:22 AM 47.6770 133.7620 46° Northeast 518 596 33,000  Level FlightAware ADS-B
Fri 10:40:00 AM 50.9982 130.3347 46° Northeast  Level FlightAware Approximate
Fri 10:40:00 AM 47.7160 133.9300 71° East 519 597 33,000  Level FlightAware ADS-B
Fri 10:40:39 AM 47.7440 134.0480 71° East 519 597 33,000  Level FlightAware ADS-B
Fri 10:41:22 AM 47.7770 134.1920 71° East 518 596 33,000  Level FlightAware ADS-B
Fri 10:42:04 AM 47.8130 134.3480 71° East 516 594 33,000  Level FlightAware ADS-B
Fri 10:42:55 AM 47.8420 134.4780 72° East 515 593 33,000  Level FlightAware ADS-B
Fri 10:43:36 AM 47.8900 134.6360 66° East 521 600 33,000  Level FlightAware ADS-B
Fri 10:44:06 AM 47.9430 134.7080 42° Northeast 533 613 33,000  Level FlightAware ADS-B
Fri 10:44:38 AM 48.0120 134.7660 29° Northeast 533 613 33,000  Level FlightAware ADS-B
Fri 10:45:27 AM 48.1230 134.8570 29° Northeast 532 612 33,000  Level FlightAware ADS-B
Fri 10:46:06 AM 48.2010 134.9210 29° Northeast 530 610 33,000  Level FlightAware ADS-B
Fri 10:46:52 AM 48.3060 135.0080 29° Northeast 527 606 33,000  Level FlightAware ADS-B
Fri 10:47:40 AM 48.4020 135.0890 29° Northeast 526 605 33,000  Level FlightAware ADS-B
Fri 10:48:25 AM 48.4790 135.1550 30° Northeast 526 605 33,000  Level FlightAware ADS-B
Fri 10:49:02 AM 48.5720 135.2510 34° Northeast 529 609 33,000  Level FlightAware ADS-B
Fri 10:49:38 AM 48.6400 135.3470 43° Northeast 526 605 33,000  Level FlightAware ADS-B
Fri 10:50:32 AM 48.7290 135.4790 44° Northeast 523 602 33,000  Level FlightAware ADS-B
Fri 10:51:13 AM 48.8020 135.5890 45° Northeast 521 600 33,000  Level FlightAware ADS-B
Fri 10:51:52 AM 48.8650 135.6840 45° Northeast 521 600 33,000  Level FlightAware ADS-B
Fri 10:52:35 AM 48.9450 135.8030 44° Northeast 520 598 33,000  Level FlightAware ADS-B
Fri 10:53:22 AM 49.0220 135.9180 44° Northeast 518 596 33,000  Level FlightAware ADS-B
Fri 10:54:01 AM 49.0920 136.0250 45° Northeast 518 596 33,000  Level FlightAware ADS-B
Fri 10:54:43 AM 49.1620 136.1310 45° Northeast 517 595 33,000  Level FlightAware ADS-B
Fri 10:55:30 AM 49.2320 136.2390 45° Northeast 517 595 33,000  Level FlightAware ADS-B
Fri 10:56:07 AM 49.2850 136.3210 45° Northeast 517 595 33,000  Level FlightAware ADS-B
Fri 10:57:10 AM 49.3760 136.4600 45° Northeast 517 595 33,000  Level FlightAware ADS-B
Fri 10:57:46 AM 49.4280 136.5390 45° Northeast 517 595 33,000  Level FlightAware ADS-B
Fri 10:58:32 AM 49.4940 136.6410 45° Northeast 517 595 33,000  Level FlightAware ADS-B
Fri 10:59:07 AM 49.5440 136.7190 45° Northeast 517 595 33,000  Level FlightAware ADS-B
Fri 10:59:46 AM 49.6000 136.8050 45° Northeast 517 595 33,000  Level FlightAware ADS-B
Fri 11:00:46 AM 49.6860 136.9380 45° Northeast 517 595 33,000  Level FlightAware ADS-B
Fri 11:01:28 AM 49.9010 137.0380 17° North 33,000  Level FlightAware ADS-B
Fri 11:02:18 AM 49.9830 137.1240 34° Northeast 507 583 33,000  Level FlightAware ADS-B
Fri 11:02:58 AM 50.0810 137.2260 34° Northeast 505 581 33,000  Level FlightAware ADS-B
Fri 11:03:38 AM 50.1580 137.3090 35° Northeast 503 579 33,000  Level FlightAware ADS-B
Fri 11:04:18 AM 50.2350 137.3910 34° Northeast 501 577 33,000  Level FlightAware ADS-B
Fri 11:04:58 AM 50.3120 137.4740 35° Northeast 503 579 33,000  Level FlightAware ADS-B
Fri 11:05:46 AM 50.4050 137.5750 35° Northeast 508 585 33,000  Level FlightAware ADS-B
Fri 11:06:26 AM 50.4780 137.6640 38° Northeast 510 587 33,000  Level FlightAware ADS-B
Fri 11:07:04 AM 50.5450 137.7460 38° Northeast 512 589 33,000  Level FlightAware ADS-B
Fri 11:08:00 AM 50.6530 137.8780 38° Northeast 512 589 33,000  Level FlightAware ADS-B
Fri 11:08:40 AM 50.7290 137.9710 38° Northeast 512 589 33,000  Level FlightAware ADS-B
Fri 11:09:28 AM 50.8160 138.0770 38° Northeast 512 589 33,000  Level FlightAware ADS-B
Fri 11:10:09 AM 50.8930 138.1710 38° Northeast 512 589 33,000  Level FlightAware ADS-B
Fri 11:10:49 AM 50.9670 138.2530 35° Northeast 509 586 33,000  Level FlightAware ADS-B
Fri 11:11:29 AM 51.0390 138.3280 33° Northeast 509 586 33,000  Level FlightAware ADS-B
Fri 11:12:17 AM 51.1430 138.4360 33° Northeast 504 580 33,000  Level FlightAware ADS-B
Fri 11:12:54 AM 51.2120 138.5090 34° Northeast 504 580 33,000  Level FlightAware ADS-B
Fri 11:13:42 AM 51.3080 138.6090 33° Northeast 504 580 33,000  Level FlightAware ADS-B
Fri 11:14:38 AM 51.4170 138.7250 34° Northeast 510 587 33,000  Level FlightAware ADS-B
Fri 11:15:26 AM 51.5110 138.8250 33° Northeast 512 589 33,000  Level FlightAware ADS-B
Fri 11:16:07 AM 51.5900 138.9100 34° Northeast 514 592 33,000  Level FlightAware ADS-B
Fri 11:16:47 AM 51.6670 138.9920 33° Northeast 517 595 33,000  Level FlightAware ADS-B
Fri 11:17:27 AM 51.7510 139.0820 34° Northeast 520 598 33,000  Level FlightAware ADS-B
Fri 11:18:16 AM 51.8460 139.1850 34° Northeast 522 601 33,000  Level FlightAware ADS-B
Fri 11:19:32 AM 51.9940 139.3450 34° Northeast 525 604 33,000  Level FlightAware ADS-B
Fri 11:20:12 AM 52.0860 139.4450 34° Northeast 525 604 33,000  Level FlightAware ADS-B
Fri 11:20:52 AM 52.1530 139.5190 34° Northeast 526 605 33,000  Level FlightAware ADS-B
Fri 11:21:46 AM 52.2750 139.6510 33° Northeast 526 605 33,000  Level FlightAware ADS-B
Fri 11:22:53 AM 52.3890 139.7770 34° Northeast 525 604 33,000  Level FlightAware ADS-B
Fri 11:24:07 AM 52.5410 139.9460 34° Northeast 525 604 33,000  Level FlightAware ADS-B
Fri 11:24:50 AM 52.6420 140.0590 34° Northeast 526 605 33,000  Level FlightAware ADS-B
Fri 11:25:25 AM 52.7060 140.1310 34° Northeast 526 605 33,000  Level FlightAware ADS-B
Fri 11:26:13 AM 52.7880 140.2220 34° Northeast 526 605 33,000  Level FlightAware ADS-B
Fri 11:26:49 AM 52.8500 140.2910 34° Northeast 526 605 33,000  Level FlightAware ADS-B
Fri 11:27:38 AM 52.9340 140.3850 34° Northeast 526 605 33,000  Level FlightAware ADS-B
Fri 11:28:15 AM 52.9970 140.4560 34° Northeast 526 605 33,000  Level FlightAware ADS-B
Fri 11:28:50 AM 53.0570 140.5240 34° Northeast 526 605 33,000  Level FlightAware ADS-B
Fri 11:29:36 AM 53.1360 140.6120 34° Northeast 526 605 33,000  Level FlightAware ADS-B
Fri 11:29:58 AM 53.1740 140.6550 34° Northeast 526 605 33,000  Level FlightAware ADS-B
Fri 11:30:16 AM 53.2050 140.6900 34° Northeast 526 605 33,000  Level FlightAware ADS-B
Fri 11:32:23 AM 53.4230 140.9360 34° Northeast 526 605 33,000  Level FlightAware ADS-B
Fri 11:33:11 AM 53.5050 141.0290 34° Northeast 526 605 33,000  Level FlightAware ADS-B
Fri 11:33:47 AM 53.5670 141.0990 34° Northeast 526 605 33,000  Level FlightAware ADS-B
Fri 11:34:36 AM 53.6510 141.1950 34° Northeast 526 605 33,000 15 Level FlightAware ADS-B
Fri 11:37:00 AM 53.8002 141.6566 61° Northeast  Level Estimated
Fri 11:38:00 AM 53.8618 141.8499 62° Northeast  Level Estimated
Fri 11:39:00 AM 53.9231 142.0438 62° Northeast  Level Estimated
Fri 11:40:00 AM 53.9841 142.2382 62° Northeast  Level Estimated
Fri 11:41:00 AM 54.0448 142.4332 62° Northeast  Level Estimated
Fri 11:42:00 AM 54.1052 142.6288 62° Northeast  Level Estimated
Fri 11:43:00 AM 54.1652 142.8250 62° Northeast  Level Estimated
Fri 11:44:00 AM 54.2250 143.0217 62° Northeast  Level Estimated
Fri 11:45:00 AM 54.2844 143.2190 63° Northeast  Level Estimated
Fri 11:46:00 AM 54.3435 143.4168 63° Northeast  Level Estimated
Fri 11:47:00 AM 54.4023 143.6153 63° Northeast  Level Estimated
Fri 11:48:00 AM 54.4607 143.8143 63° Northeast  Level Estimated
Fri 11:49:00 AM 54.5188 144.0138 63° Northeast  Level Estimated
Fri 11:50:00 AM 54.5766 144.2139 63° Northeast  Level Estimated
Fri 11:51:00 AM 54.6340 144.4146 64° Northeast  Level Estimated
Fri 11:52:00 AM 54.6912 144.6159 64° Northeast  Level Estimated
Fri 11:53:00 AM 54.7480 144.8177 64° Northeast  Level Estimated
Fri 11:54:00 AM 54.8044 145.0201 64° Northeast  Level Estimated
Fri 11:55:00 AM 54.8605 145.2231 64° Northeast  Level Estimated
Fri 11:56:00 AM 54.9163 145.4266 64° Northeast  Level Estimated
Fri 11:57:00 AM 54.9717 145.6307 65° Northeast  Level Estimated
Fri 11:58:00 AM 55.0268 145.8353 65° Northeast  Level Estimated
Fri 11:59:00 AM 55.0816 146.0405 65° Northeast  Level Estimated
Fri 12:00:00 PM 55.1360 146.2463 65° Northeast  Level Estimated
Fri 12:01:00 PM 55.1900 146.4526 65° Northeast  Level Estimated
Fri 12:02:00 PM 55.2437 146.6595 65° Northeast  Level Estimated
Fri 12:03:00 PM 55.2971 146.8669 66° East  Level Estimated
Fri 12:04:00 PM 55.3501 147.0750 66° East  Level Estimated
Fri 12:05:00 PM 55.4027 147.2835 66° East  Level Estimated
Fri 12:06:00 PM 55.4550 147.4926 66° East  Level Estimated
Fri 12:07:00 PM 55.5069 147.7023 66° East  Level Estimated
Fri 12:08:00 PM 55.5585 147.9125 66° East  Level Estimated
Fri 12:09:00 PM 55.6097 148.1233 67° East  Level Estimated
Fri 12:10:00 PM 55.6606 148.3346 67° East  Level Estimated
Fri 12:11:00 PM 55.7110 148.5464 67° East  Level Estimated
Fri 12:12:00 PM 55.7612 148.7589 67° East  Level Estimated
Fri 12:13:00 PM 55.8109 148.9718 67° East  Level Estimated
Fri 12:14:00 PM 55.8603 149.1853 68° East  Level Estimated
Fri 12:15:00 PM 55.9093 149.3994 68° East  Level Estimated
Fri 12:16:00 PM 55.9580 149.6139 68° East  Level Estimated
Fri 12:17:00 PM 56.0062 149.8291 68° East  Level Estimated
Fri 12:18:00 PM 56.0541 150.0447 68° East  Level Estimated
Fri 12:19:00 PM 56.1016 150.2609 68° East  Level Estimated
Fri 12:20:00 PM 56.1488 150.4776 69° East  Level Estimated
Fri 12:21:00 PM 56.1955 150.6949 69° East  Level Estimated
Fri 12:22:00 PM 56.2419 150.9126 69° East  Level Estimated
Fri 12:23:00 PM 56.2879 151.1309 69° East  Level Estimated
Fri 12:24:00 PM 56.3335 151.3498 69° East  Level Estimated
Fri 12:25:00 PM 56.3787 151.5691 69° East  Level Estimated
Fri 12:26:00 PM 56.4236 151.7890 70° East  Level Estimated
Fri 12:27:00 PM 56.4680 152.0094 70° East  Level Estimated
Fri 12:28:00 PM 56.5121 152.2303 70° East  Level Estimated
Fri 12:29:00 PM 56.5557 152.4517 70° East  Level Estimated
Fri 12:30:00 PM 56.5990 152.6736 70° East  Level Estimated
Fri 12:31:00 PM 56.6418 152.8960 71° East  Level Estimated
Fri 12:32:00 PM 56.6843 153.1190 71° East  Level Estimated
Fri 12:33:00 PM 56.7264 153.3424 71° East  Level Estimated
Fri 12:34:00 PM 56.7681 153.5663 71° East  Level Estimated
Fri 12:35:00 PM 56.8093 153.7907 71° East  Level Estimated
Fri 12:36:00 PM 56.8502 154.0157 72° East  Level Estimated
Fri 12:37:00 PM 56.8907 154.2411 72° East  Level Estimated
Fri 12:38:00 PM 56.9307 154.4670 72° East  Level Estimated
Fri 12:39:00 PM 56.9703 154.6933 72° East  Level Estimated
Fri 12:40:00 PM 57.0096 154.9202 72° East  Level Estimated
Fri 12:41:00 PM 57.0484 155.1475 72° East  Level Estimated
Fri 12:42:00 PM 57.0868 155.3753 73° East  Level Estimated
Fri 12:43:00 PM 57.1248 155.6036 73° East  Level Estimated
Fri 12:44:00 PM 57.1624 155.8323 73° East  Level Estimated
Fri 12:45:00 PM 57.1996 156.0615 73° East  Level Estimated
Fri 12:46:00 PM 57.2363 156.2912 73° East  Level Estimated
Fri 12:47:00 PM 57.2727 156.5213 74° East  Level Estimated
Fri 12:48:00 PM 57.3086 156.7519 74° East  Level Estimated
Fri 12:49:00 PM 57.3441 156.9829 74° East  Level Estimated
Fri 12:50:00 PM 57.3791 157.2144 74° East  Level Estimated
Fri 12:51:00 PM 57.4137 157.4462 74° East  Level Estimated
Fri 12:52:00 PM 57.4480 157.6786 75° East  Level Estimated
Fri 12:53:00 PM 57.4817 157.9114 75° East  Level Estimated
Fri 12:54:00 PM 57.5151 158.1446 75° East  Level Estimated
Fri 12:55:00 PM 57.5480 158.3782 75° East  Level Estimated
Fri 12:56:00 PM 57.5805 158.6122 75° East  Level Estimated
Fri 12:57:00 PM 57.6125 158.8467 76° East  Level Estimated
Fri 12:58:00 PM 57.6442 159.0815 76° East  Level Estimated
Fri 12:59:00 PM 57.6754 159.3168 76° East  Level Estimated
Fri 01:00:00 PM 57.7061 159.5525 76° East  Level Estimated
Fri 01:01:00 PM 57.7364 159.7886 76° East  Level Estimated
Fri 01:02:00 PM 57.7663 160.0251 77° East  Level Estimated
Fri 01:03:00 PM 57.7957 160.2619 77° East  Level Estimated
Fri 01:04:00 PM 57.8247 160.4992 77° East  Level Estimated
Fri 01:05:00 PM 57.8532 160.7368 77° East  Level Estimated
Fri 01:06:00 PM 57.8813 160.9748 77° East  Level Estimated
Fri 01:07:00 PM 57.9090 161.2131 78° East  Level Estimated
Fri 01:08:00 PM 57.9362 161.4519 78° East  Level Estimated
Fri 01:09:00 PM 57.9630 161.6910 78° East  Level Estimated
Fri 01:10:00 PM 57.9893 161.9304 78° East  Level Estimated
Fri 01:11:00 PM 58.0151 162.1702 78° East  Level Estimated
Fri 01:12:00 PM 58.0405 162.4103 79° East  Level Estimated
Fri 01:13:00 PM 58.0655 162.6508 79° East  Level Estimated
Fri 01:14:00 PM 58.0900 162.8916 79° East  Level Estimated
Fri 01:15:00 PM 58.1140 163.1327 79° East  Level Estimated
Fri 01:16:00 PM 58.1376 163.3742 79° East  Level Estimated
Fri 01:17:00 PM 58.1607 163.6160 80° East  Level Estimated
Fri 01:18:00 PM 58.1834 163.8580 80° East  Level Estimated
Fri 01:19:00 PM 58.2056 164.1004 80° East  Level Estimated
Fri 01:20:00 PM 58.2274 164.3431 80° East  Level Estimated
Fri 01:21:00 PM 58.2486 164.5861 80° East  Level Estimated
Fri 01:22:00 PM 58.2695 164.8294 81° East  Level Estimated
Fri 01:23:00 PM 58.2898 165.0729 81° East  Level Estimated
Fri 01:24:00 PM 58.3098 165.3168 81° East  Level Estimated
Fri 01:25:00 PM 58.3292 165.5609 81° East  Level Estimated
Fri 01:26:00 PM 58.3482 165.8053 81° East  Level Estimated
Fri 01:27:00 PM 58.3667 166.0499 82° East  Level Estimated
Fri 01:28:00 PM 58.3847 166.2948 82° East  Level Estimated
Fri 01:29:00 PM 58.4023 166.5399 82° East  Level Estimated
Fri 01:30:00 PM 58.4194 166.7853 82° East  Level Estimated
Fri 01:31:00 PM 58.4361 167.0309 83° East  Level Estimated
Fri 01:32:00 PM 58.4522 167.2767 83° East  Level Estimated
Fri 01:33:00 PM 58.4679 167.5228 83° East  Level Estimated
Fri 01:34:00 PM 58.4832 167.7690 83° East  Level Estimated
Fri 01:35:00 PM 58.4979 168.0155 83° East  Level Estimated
Fri 01:36:00 PM 58.5122 168.2622 84° East  Level Estimated
Fri 01:37:00 PM 58.5260 168.5091 84° East  Level Estimated
Fri 01:38:00 PM 58.5393 168.7562 84° East  Level Estimated
Fri 01:39:00 PM 58.5522 169.0035 84° East  Level Estimated
Fri 01:40:00 PM 58.5646 169.2509 84° East  Level Estimated
Fri 01:41:00 PM 58.5765 169.4985 85° East  Level Estimated
Fri 01:42:00 PM 58.5879 169.7463 85° East  Level Estimated
Fri 01:43:00 PM 58.5989 169.9942 85° East  Level Estimated
Fri 01:44:00 PM 58.6093 170.2423 85° East  Level Estimated
Fri 01:44:18 PM 64.6930 171.2650 85° East 529 609 35,000  Level FlightAware ADS-B
Fri 01:45:00 PM 58.6193 170.4906 85° East  Level Estimated
Fri 01:45:47 PM 64.7050 171.7220 86° East 525 604 35,000  Level FlightAware ADS-B
Fri 01:46:23 PM 64.7110 171.9720 87° East 525 604 35,000  Level FlightAware ADS-B
Fri 01:47:05 PM 64.7170 172.2070 86° East 526 605 35,000  Level FlightAware ADS-B
Fri 01:48:02 PM 64.7240 172.5360 87° East 527 606 35,000  Level FlightAware ADS-B
Fri 01:48:37 PM 64.7280 172.7410 87° East 528 608 35,000  Level FlightAware ADS-B
Fri 01:49:16 PM 64.7310 172.9600 88° East 527 606 35,000  Level FlightAware ADS-B
Fri 01:50:04 PM 64.7350 173.2190 88° East 527 606 35,000  Level FlightAware ADS-B
Fri 01:50:40 PM 64.7380 173.4260 88° East 526 605 35,000  Level FlightAware ADS-B
Fri 01:51:26 PM 64.7420 173.6800 88° East 525 604 35,000  Level FlightAware ADS-B
Fri 01:52:10 PM 64.7450 173.9360 88° East 524 603 35,000  Level FlightAware ADS-B
Fri 01:52:53 PM 64.7470 174.1900 89° East 525 604 35,000  Level FlightAware ADS-B
Fri 01:53:33 PM 64.7490 174.4110 89° East 524 603 35,000  Level FlightAware ADS-B
Fri 01:54:15 PM 64.7500 174.6430 89° East 525 604 35,000  Level FlightAware ADS-B
Fri 01:54:55 PM 64.7510 174.8750 89° East 525 604 35,000  Level FlightAware ADS-B
Fri 01:55:39 PM 64.7520 175.1300 89° East 525 604 35,000  Level FlightAware ADS-B
Fri 01:56:18 PM 64.7530 175.3570 89° East 525 604 35,000  Level FlightAware ADS-B
Fri 01:57:05 PM 64.7530 175.6040 90° East 525 604 35,000  Level FlightAware ADS-B
Fri 01:57:41 PM 64.7520 175.8040 91° East 526 605 35,000  Level FlightAware ADS-B
Fri 01:58:26 PM 64.7510 176.0610 90° East 526 605 35,000  Level FlightAware ADS-B
Fri 01:59:18 PM 64.7500 176.3660 90° East 525 604 35,000  Level FlightAware ADS-B
Fri 01:59:59 PM 64.7490 176.5740 91° East 525 604 35,000  Level FlightAware ADS-B
Fri 02:00:58 PM 64.7460 176.8730 91° East 524 603 35,000  Level FlightAware ADS-B
Fri 02:01:46 PM 64.7440 177.1050 91° East 524 603 35,000  Level FlightAware ADS-B
Fri 02:02:56 PM 64.7390 177.5560 91° East 523 602 35,000  Level FlightAware ADS-B
Fri 02:03:52 PM 64.7330 177.8880 92° East 523 602 35,000  Level FlightAware ADS-B
Fri 02:04:29 PM 64.7300 178.0660 92° East 523 602 35,000  Level FlightAware ADS-B
Fri 02:05:28 PM 64.7210 178.4520 93° East 522 601 35,000  Level FlightAware ADS-B
Fri 02:06:12 PM 64.7160 178.6790 93° East 522 601 35,000  Level FlightAware ADS-B
Fri 02:06:48 PM 64.7120 178.8520 93° East 522 601 35,000  Level FlightAware ADS-B
Fri 02:07:29 PM 64.7040 179.1270 94° East 522 601 35,000  Level FlightAware ADS-B
Fri 02:08:06 PM 64.6990 179.3310 93° East 521 600 35,000  Level FlightAware ADS-B
Fri 02:08:47 PM 64.6920 179.5670 94° East 521 600 35,000  Level FlightAware ADS-B
Fri 02:09:28 PM 64.6860 179.7730 94° East 521 600 35,000  Level FlightAware ADS-B
Fri 02:10:02 PM 64.6790 179.9840 94° East 521 600 35,000  Level FlightAware ADS-B
Fri 02:10:50 PM 64.6690 -179.7380 95° East 521 600 35,000  Level FlightAware ADS-B
Fri 02:11:29 PM 64.6610 -179.5200 95° East 522 601 35,000  Level FlightAware ADS-B
Fri 02:12:02 PM 64.6550 -179.3680 95° East 522 601 35,000  Level FlightAware ADS-B
Fri 02:12:44 PM 64.6440 -179.1060 95° East 522 601 35,000  Level FlightAware ADS-B
Fri 02:13:26 PM 64.6340 -178.8730 96° East 522 601 35,000  Level FlightAware ADS-B
Fri 02:14:12 PM 64.6240 -178.6410 96° East 522 601 35,000  Level FlightAware ADS-B
Fri 02:14:51 PM 64.6130 -178.3930 96° East 521 600 35,000  Level FlightAware ADS-B
Fri 02:15:32 PM 64.6030 -178.1780 96° East 522 601 35,000  Level FlightAware ADS-B
Fri 02:16:20 PM 64.5900 -177.9080 96° East 522 601 35,000  Level FlightAware ADS-B
Fri 02:16:51 PM 64.5820 -177.7490 97° East 522 601 35,000  Level FlightAware ADS-B
Fri 02:17:31 PM 64.5700 -177.5060 96° East 522 601 35,000  Level FlightAware ADS-B
Fri 02:18:16 PM 64.5560 -177.2560 97° East 523 602 35,000  Level FlightAware ADS-B
Fri 02:18:59 PM 64.5450 -177.0370 97° East 523 602 35,000  Level FlightAware ADS-B
Fri 02:19:39 PM 64.5310 -176.7990 98° East 522 601 35,000  Level FlightAware ADS-B
Fri 02:20:20 PM 64.5180 -176.5770 98° East 522 601 35,000  Level FlightAware ADS-B
Fri 02:21:02 PM 64.5040 -176.3300 97° East 522 601 35,000  Level FlightAware ADS-B
Fri 02:21:44 PM 64.4900 -176.1070 98° East 521 600 35,000  Level FlightAware ADS-B
Fri 02:22:29 PM 64.4740 -175.8560 98° East 520 598 35,000  Level FlightAware ADS-B
Fri 02:23:05 PM 64.4620 -175.6620 98° East 520 598 35,000  Level FlightAware ADS-B
Fri 02:23:49 PM 64.4490 -175.4480 98° East 520 598 35,000  Level FlightAware ADS-B
Fri 02:24:28 PM 64.4370 -175.2650 99° East 520 598 35,000  Level FlightAware ADS-B
Fri 02:25:17 PM 64.4230 -175.0350 98° East 520 598 35,000  Level FlightAware ADS-B
Fri 02:25:53 PM 64.4130 -174.8670 98° East 520 598 35,000  Level FlightAware ADS-B
Fri 02:26:40 PM 64.4000 -174.6460 98° East 520 598 35,000  Level FlightAware ADS-B
Fri 02:27:27 PM 64.3860 -174.4260 98° East 520 598 35,000  Level FlightAware ADS-B
Fri 02:28:04 PM 64.3760 -174.2530 98° East 520 598 35,000  Level FlightAware ADS-B
Fri 02:29:04 PM 64.3590 -173.9720 98° East 520 598 35,000  Level FlightAware ADS-B
Fri 02:29:39 PM 64.3490 -173.8080 98° East 520 598 35,000  Level FlightAware ADS-B
Fri 02:30:18 PM 64.3370 -173.6260 99° East 520 598 35,000  Level FlightAware ADS-B
Fri 02:31:06 PM 64.3240 -173.4020 98° East 520 598 35,000  Level FlightAware ADS-B
Fri 02:32:06 PM 64.3070 -173.1210 98° East 520 598 35,000  Level FlightAware ADS-B
Fri 02:32:40 PM 64.2970 -172.9620 98° East 520 598 35,000  Level FlightAware ADS-B
Fri 02:34:10 PM 64.3667 -172.0500 98° East 510 587 35,000  Level Anchorage Center
Fri 02:35:10 PM 64.3667 -171.7167 90° East 520 598 35,000  Level Anchorage Center
Fri 02:36:10 PM 64.3833 -171.3833 83° East 530 610 35,000  Level Anchorage Center
Fri 02:37:11 PM 64.3833 -171.0500 90° East 510 587 35,000  Level Anchorage Center
Fri 02:38:11 PM 64.3833 -170.7333 90° East 500 575 35,000  Level Anchorage Center
Fri 02:39:11 PM 64.3667 -170.4000 96° East 510 587 35,000 300 Level Anchorage Center
Fri 02:40:11 PM 64.3500 -170.0833 97° East 510 587 35,600 843 Climbing Anchorage Center
Fri 02:41:12 PM 64.3167 -169.6833 101° East 530 610 36,700 694 Climbing Anchorage Center
Fri 02:42:12 PM 64.3000 -169.3500 96° East 510 587 37,000 149 Climbing Anchorage Center
Fri 02:43:13 PM 64.2833 -169.0167 96° East 510 587 37,000  Level Anchorage Center
Fri 02:44:13 PM 64.2667 -168.7000 97° East 510 587 37,000  Level Anchorage Center
Fri 02:45:13 PM 64.2500 -168.3667 96° East 520 598 37,000  Level Anchorage Center
Fri 02:46:13 PM 64.2333 -168.0500 97° East 510 587 37,000  Level Anchorage Center
Fri 02:47:14 PM 64.2000 -167.7167 103° East 520 598 37,000  Level Anchorage Center
Fri 02:48:14 PM 64.1833 -167.4000 97° East 510 587 37,000  Level Anchorage Center
Fri 02:49:14 PM 64.1667 -167.0833 97° East 510 587 37,000  Level Anchorage Center
Fri 02:50:15 PM 64.1333 -166.7500 103° East 510 587 37,000  Level Anchorage Center
Fri 02:51:15 PM 64.1167 -166.4333 97° East 510 587 37,000  Level Anchorage Center
Fri 02:52:16 PM 64.1000 -166.1167 97° East 520 598 37,000  Level Anchorage Center
Fri 02:53:16 PM 64.0667 -165.7833 103° East 520 598 37,000  Level Anchorage Center
Fri 02:54:16 PM 64.0500 -165.4667 97° East 510 587 37,000  Level Anchorage Center
Fri 02:55:17 PM 64.0167 -165.1500 103° East 520 598 37,000  Level Anchorage Center
Fri 02:56:17 PM 64.0000 -164.8333 97° East 510 587 37,000  Level Anchorage Center
Fri 02:57:17 PM 63.9667 -164.4667 102° East 510 587 37,000  Level Anchorage Center
Fri 02:58:17 PM 63.9500 -164.1500 97° East 510 587 37,000  Level Anchorage Center
Fri 02:59:18 PM 63.9167 -163.8167 103° East 510 587 37,000  Level Anchorage Center
Fri 03:00:18 PM 63.8833 -163.5000 103° East 510 587 37,000  Level Anchorage Center
Fri 03:01:18 PM 63.8667 -163.1833 97° East 510 587 37,000  Level Anchorage Center
Fri 03:02:19 PM 63.8333 -162.8500 103° East 520 598 37,000  Level Anchorage Center
Fri 03:03:19 PM 63.8000 -162.5333 103° East 520 598 37,000  Level Anchorage Center
Fri 03:04:19 PM 63.7667 -162.2167 103° East 510 587 37,000  Level Anchorage Center
Fri 03:05:20 PM 63.7333 -161.9000 103° East 520 598 37,000  Level Anchorage Center
Fri 03:06:20 PM 63.7000 -161.6333 106° East 510 587 37,000  Level Anchorage Center
Fri 03:07:20 PM 63.6833 -161.3000 96° East 520 598 37,000  Level Anchorage Center
Fri 03:08:21 PM 63.6333 -160.9833 109° East 520 598 37,000  Level Anchorage Center
Fri 03:09:21 PM 63.6000 -160.6833 104° East 510 587 37,000  Level Anchorage Center
Fri 03:10:22 PM 63.5667 -160.3667 103° East 520 598 37,000  Level Anchorage Center
Fri 03:11:22 PM 63.5333 -160.0500 103° East 520 598 37,000  Level Anchorage Center
Fri 03:12:22 PM 63.5000 -159.6667 101° East 510 587 37,000  Level Anchorage Center
Fri 03:13:22 PM 63.4667 -159.4167 107° East 510 587 37,000  Level Anchorage Center
Fri 03:14:22 PM 63.4167 -159.0500 107° East 520 598 37,000  Level Anchorage Center
Fri 03:15:23 PM 63.3833 -158.7333 103° East 510 587 37,000  Level Anchorage Center
Fri 03:16:23 PM 63.3333 -158.4167 109° East 520 598 37,000  Level Anchorage Center
Fri 03:17:24 PM 63.3000 -158.1167 104° East 520 598 37,000  Level Anchorage Center
Fri 03:18:24 PM 63.2500 -157.8000 109° East 510 587 37,000  Level Anchorage Center
Fri 03:19:24 PM 63.2167 -157.5000 104° East 510 587 37,000  Level Anchorage Center
Fri 03:20:25 PM 63.1667 -157.1833 109° East 520 598 37,000  Level Anchorage Center
Fri 03:21:25 PM 63.1333 -156.8833 104° East 520 598 37,000  Level Anchorage Center
Fri 03:22:25 PM 63.0833 -156.5833 110° East 510 587 37,000  Level Anchorage Center
Fri 03:23:26 PM 63.0500 -156.2667 103° East 500 575 37,000  Level Anchorage Center
Fri 03:24:26 PM 63.0167 -156.0333 107° East 520 598 37,000  Level Anchorage Center
Fri 03:30:34 PM 62.5950 -154.3640 107° East 512 589 37,000  Level FlightAware ADS-B
Fri 03:31:22 PM 62.5160 -154.0990 123° Southeast 512 589 37,000  Level FlightAware ADS-B
Fri 03:32:06 PM 62.4590 -153.9050 122° Southeast 513 590 37,000  Level FlightAware ADS-B
Fri 03:32:38 PM 62.4190 -153.7720 123° Southeast 513 590 37,000  Level FlightAware ADS-B
Fri 03:33:21 PM 62.3630 -153.5900 124° Southeast 513 590 37,000  Level FlightAware ADS-B
Fri 03:34:06 PM 62.3040 -153.3950 123° Southeast 515 593 37,000  Level FlightAware ADS-B
Fri 03:34:45 PM 62.2540 -153.2320 123° Southeast 515 593 37,000  Level FlightAware ADS-B
Fri 03:35:25 PM 62.2010 -153.0610 124° Southeast 516 594 37,000  Level FlightAware ADS-B
Fri 03:36:10 PM 62.1410 -152.8700 124° Southeast 516 594 37,000  Level FlightAware ADS-B
Fri 03:36:50 PM 62.0880 -152.7010 124° Southeast 517 595 37,000  Level FlightAware ADS-B
Fri 03:37:43 PM 62.0180 -152.4800 124° Southeast 516 594 37,000  Level FlightAware ADS-B
Fri 03:38:18 PM 61.9700 -152.3310 124° Southeast 515 593 37,000  Level FlightAware ADS-B
Fri 03:39:04 PM 61.9090 -152.1430 125° Southeast 515 593 37,000  Level FlightAware ADS-B
Fri 03:39:40 PM 61.8600 -151.9920 124° Southeast 514 592 37,000  Level FlightAware ADS-B
Fri 03:40:24 PM 61.8010 -151.8110 125° Southeast 513 590 37,000  Level FlightAware ADS-B
Fri 03:41:04 PM 61.7470 -151.6460 125° Southeast 512 589 37,000  Level FlightAware ADS-B
Fri 03:41:48 PM 61.6870 -151.4670 125° Southeast 511 588 37,000  Level FlightAware ADS-B
Fri 03:42:26 PM 61.6360 -151.3140 125° Southeast 512 589 37,000  Level FlightAware ADS-B
Fri 03:43:08 PM 61.5790 -151.1440 125° Southeast 512 589 37,000  Level FlightAware ADS-B
Fri 03:43:52 PM 61.5190 -150.9670 125° Southeast 513 590 37,000  Level FlightAware ADS-B
Fri 03:44:27 PM 61.4720 -150.8290 125° Southeast 513 590 37,000  Level FlightAware ADS-B
Fri 03:46:44 PM 61.2820 -150.2830 126° Southeast 512 589 37,000  Level FlightAware ADS-B
Fri 03:47:24 PM 61.2250 -150.1200 126° Southeast 512 589 37,000  Level FlightAware ADS-B
Fri 03:48:06 PM 61.1660 -149.9580 127° Southeast 510 587 37,000  Level FlightAware ADS-B
Fri 03:49:04 PM 61.0750 -149.7460 132° Southeast 507 583 37,000  Level FlightAware ADS-B
Fri 03:49:46 PM 61.0060 -149.6000 134° Southeast 506 582 37,000  Level FlightAware ADS-B
Fri 03:50:26 PM 60.9420 -149.4610 133° Southeast 506 582 37,000  Level FlightAware ADS-B
Fri 03:51:10 PM 60.8720 -149.3090 133° Southeast 507 583 37,000  Level FlightAware ADS-B
Fri 03:51:52 PM 60.8040 -149.1600 133° Southeast 508 585 37,000  Level FlightAware ADS-B
Fri 03:52:34 PM 60.7370 -149.0130 133° Southeast 507 583 37,000  Level FlightAware ADS-B
Fri 03:53:18 PM 60.6660 -148.8600 133° Southeast 506 582 37,000  Level FlightAware ADS-B
Fri 03:53:54 PM 60.6090 -148.7400 134° Southeast 507 583 37,000  Level FlightAware ADS-B
Fri 03:54:26 PM 60.5560 -148.6270 134° Southeast 506 582 37,000  Level FlightAware ADS-B
Fri 03:55:10 PM 60.4860 -148.4800 134° Southeast 505 581 37,000  Level FlightAware ADS-B
Fri 03:55:49 PM 60.4240 -148.3480 134° Southeast 505 581 37,000  Level FlightAware ADS-B
Fri 03:56:43 PM 60.3420 -148.1790 134° Southeast 506 582 37,000  Level FlightAware ADS-B
Fri 03:57:26 PM 60.2650 -148.0190 134° Southeast 508 585 37,000  Level FlightAware ADS-B
Fri 03:58:07 PM 60.2060 -147.8980 134° Southeast 508 585 37,000  Level FlightAware ADS-B
Fri 03:59:20 PM 60.1050 -147.6870 134° Southeast 508 585 37,000  Level FlightAware ADS-B
Fri 03:59:56 PM 60.0550 -147.5830 134° Southeast 508 585 37,000  Level FlightAware ADS-B
Fri 04:00:08 PM 60.0380 -147.5490 135° Southeast 508 585 37,000  Level FlightAware ADS-B
Fri 04:01:19 PM 59.9400 -147.3450 134° Southeast 508 585 37,000  Level FlightAware ADS-B
Fri 04:01:57 PM 59.8870 -147.2360 134° Southeast 508 585 37,000  Level FlightAware ADS-B
Fri 04:02:45 PM 59.8200 -147.0990 134° Southeast 508 585 37,000  Level FlightAware ADS-B
Fri 04:03:21 PM 59.7700 -146.9960 134° Southeast 508 585 37,000  Level FlightAware ADS-B
Fri 04:04:11 PM 59.7010 -146.8540 134° Southeast 508 585 37,000  Level FlightAware ADS-B
Fri 04:04:47 PM 59.6510 -146.7510 134° Southeast 508 585 37,000  Level FlightAware ADS-B
Fri 04:05:36 PM 59.5830 -146.6120 134° Southeast 508 585 37,000  Level FlightAware ADS-B
Fri 04:06:24 PM 59.5160 -146.4760 134° Southeast 508 585 37,000  Level FlightAware ADS-B
Fri 04:07:01 PM 59.4650 -146.3710 134° Southeast 508 585 37,000  Level FlightAware ADS-B
Fri 04:07:36 PM 59.4160 -146.2720 134° Southeast 508 585 37,000  Level FlightAware ADS-B
Fri 04:08:41 PM 59.1667 -145.7667 134° Southeast 510 587 37,000  Level Anchorage Center
Fri 04:09:41 PM 59.0833 -145.5500 127° Southeast 510 587 37,000  Level Anchorage Center
Fri 04:10:41 PM 58.9833 -145.3333 132° Southeast 510 587 37,000  Level Anchorage Center
Fri 04:11:42 PM 58.9000 -145.1167 127° Southeast 510 587 37,000  Level Anchorage Center
Fri 04:12:42 PM 58.8000 -144.9167 134° Southeast 510 587 37,000  Level Anchorage Center
Fri 04:13:42 PM 58.7000 -144.7000 132° Southeast 510 587 37,000  Level Anchorage Center
Fri 04:14:43 PM 58.6167 -144.5000 129° Southeast 510 587 37,000  Level Anchorage Center
Fri 04:15:43 PM 58.5167 -144.2833 131° Southeast 510 587 37,000  Level Anchorage Center
Fri 04:16:43 PM 58.4333 -144.0833 128° Southeast 510 587 37,000  Level Anchorage Center
Fri 04:17:44 PM 58.3333 -143.8833 134° Southeast 500 575 37,000  Level Anchorage Center
Fri 04:18:44 PM 58.2500 -143.6833 128° Southeast 500 575 37,000  Level Anchorage Center
Fri 04:19:44 PM 58.1500 -143.4833 133° Southeast 510 587 37,000  Level Anchorage Center
Fri 04:20:45 PM 58.0500 -143.2833 133° Southeast 510 587 37,000  Level Anchorage Center
Fri 04:21:45 PM 57.9500 -143.0667 131° Southeast 510 587 37,000  Level Anchorage Center
Fri 04:22:45 PM 57.8500 -142.8667 133° Southeast 510 587 37,000  Level Anchorage Center
Fri 04:23:45 PM 57.7667 -142.6667 128° Southeast 510 587 37,000  Level Anchorage Center
Fri 04:24:46 PM 57.6667 -142.4667 133° Southeast 510 587 37,000  Level Anchorage Center
Fri 04:25:46 PM 57.5667 -142.2667 133° Southeast 500 575 37,000  Level Anchorage Center
Fri 04:26:46 PM 57.4667 -142.0833 135° Southeast 510 587 37,000  Level Anchorage Center
Fri 04:27:47 PM 57.3667 -141.8833 133° Southeast 520 598 37,000  Level Anchorage Center
Fri 04:28:47 PM 57.2667 -141.6833 133° Southeast 520 598 37,000  Level Anchorage Center
Fri 04:29:47 PM 57.1667 -141.4833 133° Southeast 520 598 37,000  Level Anchorage Center
Fri 04:30:48 PM 57.0667 -141.3000 135° Southeast 520 598 37,000  Level Anchorage Center
Fri 04:31:48 PM 56.9667 -141.1000 132° Southeast 520 598 37,000  Level Anchorage Center
Fri 04:32:48 PM 56.8667 -140.9000 132° Southeast 520 598 37,000  Level Anchorage Center
Fri 04:33:49 PM 56.7667 -140.7167 135° Southeast 520 598 37,000  Level Anchorage Center
Fri 04:34:49 PM 56.6667 -140.5333 135° Southeast 510 587 37,000  Level Anchorage Center
Fri 04:35:49 PM 56.5833 -140.3500 129° Southeast 510 587 37,000  Level Anchorage Center
Fri 04:36:50 PM 56.4833 -140.1667 135° Southeast 520 598 37,000  Level Anchorage Center
Fri 04:37:50 PM 56.3667 -139.9833 139° Southeast 530 610 37,000  Level Anchorage Center
Fri 04:38:51 PM 56.2500 -139.7500 132° Southeast 530 610 37,000  Level Anchorage Center
Fri 04:39:51 PM 56.1500 -139.5667 134° Southeast 520 598 37,000  Level Anchorage Center
Fri 04:40:51 PM 56.0333 -139.3667 136° Southeast 530 610 37,000  Level Anchorage Center
Fri 04:41:52 PM 55.9333 -139.1833 134° Southeast 520 598 37,000  Level Anchorage Center
Fri 04:42:52 PM 55.8333 -139.0000 134° Southeast 530 610 37,000  Level Anchorage Center
Fri 04:43:52 PM 55.7167 -138.8167 138° Southeast 530 610 37,000  Level Anchorage Center
Fri 04:44:52 PM 55.6167 -138.6333 134° Southeast 530 610 37,000  Level Anchorage Center
Fri 04:45:53 PM 55.5167 -138.4500 134° Southeast 530 610 37,000  Level Anchorage Center
Fri 04:46:53 PM 55.4000 -138.2667 138° Southeast 530 610 37,000  Level Anchorage Center
Fri 04:47:53 PM 55.3000 -138.1000 136° Southeast 540 621 37,000  Level Anchorage Center
Fri 04:48:54 PM 55.1833 -137.9167 138° Southeast 530 610 37,000  Level Anchorage Center
Fri 04:49:54 PM 55.0833 -137.7333 134° Southeast 530 610 37,000  Level Anchorage Center
Fri 04:50:54 PM 54.9833 -137.5667 136° Southeast 530 610 37,000  Level Anchorage Center
Fri 04:51:55 PM 54.8667 -137.3833 138° Southeast 540 621 37,000  Level Anchorage Center
Fri 04:52:55 PM 54.7500 -137.2000 138° Southeast 540 621 37,000  Level Anchorage Center
Fri 04:53:55 PM 54.6500 -137.0167 133° Southeast 540 621 37,000  Level Anchorage Center
Fri 04:54:56 PM 54.5333 -136.8500 140° Southeast 540 621 37,000  Level Anchorage Center
Fri 04:55:56 PM 54.4333 -136.6667 133° Southeast 540 621 37,000  Level Anchorage Center
Fri 04:56:56 PM 54.3167 -136.5000 140° Southeast 540 621 37,000  Level Anchorage Center
Fri 04:57:57 PM 54.2000 -136.3333 140° Southeast 540 621 37,000  Level Anchorage Center
Fri 04:58:57 PM 54.1000 -136.1500 133° Southeast 540 621 37,000  Level Anchorage Center
Fri 04:59:57 PM 53.9833 -135.9667 137° Southeast 540 621 37,000  Level Anchorage Center
Fri 05:00:59 PM 53.8333 -135.8833 162° South 540 621 37,000  Level Vancouver Center
Fri 05:01:59 PM 53.7167 -135.7333 143° Southeast 540 621 37,000  Level Vancouver Center
Fri 05:02:59 PM 53.6000 -135.5833 143° Southeast 540 621 37,000  Level Vancouver Center
Fri 05:03:59 PM 53.4667 -135.4333 146° Southeast 540 621 37,000  Level Vancouver Center
Fri 05:04:59 PM 53.3500 -135.3000 146° Southeast 540 621 37,000  Level Vancouver Center
Fri 05:05:59 PM 53.2333 -135.1500 142° Southeast 540 621 37,000  Level Vancouver Center
Fri 05:06:59 PM 53.1167 -135.0333 149° Southeast 530 610 37,000  Level Vancouver Center
Fri 05:07:59 PM 52.9833 -134.8833 146° Southeast 540 621 37,000  Level Vancouver Center
Fri 05:08:59 PM 52.8667 -134.7500 145° Southeast 540 621 37,000  Level Vancouver Center
Fri 05:09:59 PM 52.7500 -134.6000 142° Southeast 540 621 37,000  Level Vancouver Center
Fri 05:10:59 PM 52.6167 -134.4667 149° Southeast 540 621 37,000  Level Vancouver Center
Fri 05:11:59 PM 52.4833 -134.3167 146° Southeast 530 610 37,000  Level Vancouver Center
Fri 05:12:59 PM 52.3833 -134.1833 141° Southeast 540 621 37,000  Level Vancouver Center
Fri 05:13:59 PM 52.2333 -134.0500 151° Southeast 540 621 37,000  Level Vancouver Center
Fri 05:14:59 PM 52.1333 -133.9167 141° Southeast 540 621 37,000  Level Vancouver Center
Fri 05:15:59 PM 52.0000 -133.7667 145° Southeast 530 610 37,000  Level Vancouver Center
Fri 05:16:59 PM 51.8833 -133.6667 152° Southeast 530 610 37,000  Level Vancouver Center
Fri 05:17:59 PM 51.7500 -133.5167 145° Southeast 540 621 37,000  Level Vancouver Center
Fri 05:18:59 PM 51.6333 -133.4000 148° Southeast 530 610 37,000  Level Vancouver Center
Fri 05:19:59 PM 51.5000 -133.2500 145° Southeast 530 610 37,000  Level Vancouver Center
Fri 05:20:59 PM 51.3833 -133.1333 148° Southeast 530 610 37,000  Level Vancouver Center
Fri 05:21:59 PM 51.2500 -132.9833 145° Southeast 530 610 37,000  Level Vancouver Center
Fri 05:22:59 PM 51.1500 -132.8667 144° Southeast 530 610 37,000  Level Vancouver Center
Fri 05:23:59 PM 51.0000 -132.7333 151° Southeast 530 610 37,000  Level Vancouver Center
Fri 05:24:59 PM 50.9000 -132.6333 148° Southeast 510 587 37,000  Level Vancouver Center
Fri 05:25:59 PM 50.7667 -132.5000 148° Southeast 530 610 37,000  Level Vancouver Center
Fri 05:26:59 PM 50.6500 -132.3667 144° Southeast 530 610 37,000  Level Vancouver Center
Fri 05:27:59 PM 50.5167 -132.2333 148° Southeast 530 610 37,000  Level Vancouver Center
Fri 05:28:59 PM 50.4000 -132.1167 147° Southeast 530 610 37,000  Level Vancouver Center
Fri 05:29:59 PM 50.2833 -132.0167 151° Southeast 530 610 37,000  Level Vancouver Center
Fri 05:30:59 PM 50.1500 -131.8833 147° Southeast 530 610 37,000  Level Vancouver Center
Fri 05:31:59 PM 50.0167 -131.7667 151° Southeast 530 610 37,000  Level Vancouver Center
Fri 05:32:59 PM 49.8833 -131.6667 154° Southeast 530 610 37,000  Level Vancouver Center
Fri 05:33:59 PM 49.7667 -131.5333 144° Southeast 530 610 37,000  Level Vancouver Center
Fri 05:34:59 PM 49.6333 -131.4333 154° Southeast 530 610 37,000  Level Vancouver Center
Fri 05:35:59 PM 49.5167 -131.3167 147° Southeast 530 610 37,000  Level Vancouver Center
Fri 05:36:59 PM 49.3833 -131.2167 154° Southeast 530 610 37,000  Level Vancouver Center
Fri 05:37:59 PM 49.2500 -131.1000 150° Southeast 520 598 37,000  Level Vancouver Center
Fri 05:38:59 PM 49.1333 -131.0000 151° Southeast 530 610 37,000  Level Vancouver Center
Fri 05:39:59 PM 49.0000 -130.8833 150° Southeast 520 598 37,000  Level Vancouver Center
Fri 05:40:59 PM 48.8833 -130.7833 151° Southeast 520 598 37,000  Level Vancouver Center
Fri 05:41:59 PM 48.7500 -130.6667 150° Southeast 520 598 37,000  Level Vancouver Center
Fri 05:42:59 PM 48.6167 -130.5667 154° Southeast 520 598 37,000  Level Vancouver Center
Fri 05:43:59 PM 48.5000 -130.4500 146° Southeast 510 587 37,000  Level Vancouver Center
Fri 05:44:59 PM 48.3667 -130.3667 157° South 520 598 37,000  Level Vancouver Center
Fri 05:45:59 PM 48.2333 -130.2500 150° Southeast 510 587 37,000  Level Vancouver Center
Fri 05:46:59 PM 48.1333 -130.1500 146° Southeast 510 587 37,000  Level Vancouver Center
Fri 05:47:59 PM 47.9833 -130.0333 152° Southeast 510 587 37,000  Level Vancouver Center
Fri 05:48:59 PM 47.8667 -129.9500 154° Southeast 510 587 37,000  Level Vancouver Center
Fri 05:49:59 PM 47.7333 -129.8500 153° Southeast 500 575 37,000  Level Vancouver Center
Fri 05:50:59 PM 47.6167 -129.7500 150° Southeast 510 587 37,000  Level Vancouver Center
Fri 05:51:12 PM 47.7000 -129.7667 152° Southeast 521 600 37,000  Level Oakland Oceanic (ODAPS)
Fri 05:51:59 PM 47.5000 -129.6500 152° Southeast 510 587 37,000  Level Vancouver Center
Fri 05:52:59 PM 47.3500 -129.5333 152° Southeast 530 610 37,000  Level Vancouver Center
Fri 05:53:59 PM 47.2500 -129.4500 150° Southeast 510 587 37,000  Level Vancouver Center
Fri 05:54:59 PM 47.1167 -129.3333 149° Southeast 510 587 37,000  Level Vancouver Center
Fri 05:55:59 PM 46.9833 -129.2500 157° South 510 587 37,000  Level Vancouver Center
Fri 05:56:59 PM 46.8833 -129.1667 150° Southeast 510 587 37,000  Level Vancouver Center
Fri 06:02:31 PM 46.1830 -128.6020 150° Southeast 509 586 37,000  Level FlightAware ADS-B
Fri 06:03:39 PM 46.0560 -128.5050 152° Southeast 509 586 37,000  Level FlightAware ADS-B
Fri 06:04:15 PM 45.9920 -128.4560 152° Southeast 509 586 37,000  Level FlightAware ADS-B
Fri 06:04:59 PM 45.8720 -128.3700 153° Southeast 509 586 37,000  Level FlightAware ADS-B
Fri 06:05:43 PM 45.7790 -128.3020 153° Southeast 509 586 37,000  Level FlightAware ADS-B
Fri 06:06:23 PM 45.6960 -128.2410 153° Southeast 509 586 37,000  Level FlightAware ADS-B
Fri 06:07:07 PM 45.6050 -128.1740 153° Southeast 509 586 37,000  Level FlightAware ADS-B
Fri 06:07:39 PM 45.5370 -128.1250 153° Southeast 509 586 37,000  Level FlightAware ADS-B
Fri 06:08:19 PM 45.4540 -128.0640 153° Southeast 509 586 37,000  Level FlightAware ADS-B
Fri 06:09:03 PM 45.3610 -127.9960 153° Southeast 509 586 37,000  Level FlightAware ADS-B
Fri 06:09:41 PM 45.2820 -127.9390 153° Southeast 510 587 37,000  Level FlightAware ADS-B
Fri 06:10:23 PM 45.1930 -127.8750 153° Southeast 509 586 37,000  Level FlightAware ADS-B
Fri 06:11:29 PM 45.0550 -127.7760 153° Southeast 510 587 37,000  Level FlightAware ADS-B
Fri 06:12:09 PM 44.9700 -127.7150 153° Southeast 510 587 37,000  Level FlightAware ADS-B
Fri 06:12:51 PM 44.8830 -127.6530 153° Southeast 509 586 37,000  Level FlightAware ADS-B
Fri 06:13:27 PM 44.8050 -127.5980 153° Southeast 509 586 37,000  Level FlightAware ADS-B
Fri 06:14:08 PM 44.7200 -127.5380 153° Southeast 510 587 37,000  Level FlightAware ADS-B
Fri 06:14:49 PM 44.6340 -127.4770 153° Southeast 510 587 37,000  Level FlightAware ADS-B
Fri 06:15:21 PM 44.5770 -127.4370 153° Southeast 510 587 37,000  Level FlightAware ADS-B
Fri 06:15:34 PM 44.5540 -127.4210 154° Southeast 510 587 37,000  Level FlightAware ADS-B
Fri 06:16:51 PM 44.3790 -127.2990 154° Southeast 510 587 37,000  Level FlightAware ADS-B
Fri 06:17:35 PM 44.2830 -127.2330 154° Southeast 509 586 37,000  Level FlightAware ADS-B
Fri 06:18:15 PM 44.2030 -127.1770 153° Southeast 509 586 37,000  Level FlightAware ADS-B
Fri 06:18:53 PM 44.1310 -127.1270 154° Southeast 509 586 37,000  Level FlightAware ADS-B
Fri 06:19:43 PM 44.0140 -127.0470 154° Southeast 508 585 37,000  Level FlightAware ADS-B
Fri 06:20:23 PM 43.9290 -126.9890 154° Southeast 508 585 37,000  Level FlightAware ADS-B
Fri 06:21:17 PM 43.8260 -126.9170 153° Southeast 508 585 37,000  Level FlightAware ADS-B
Fri 06:21:57 PM 43.7320 -126.8540 154° Southeast 507 583 37,000  Level FlightAware ADS-B
Fri 06:22:37 PM 43.6470 -126.7960 154° Southeast 506 582 37,000  Level FlightAware ADS-B
Fri 06:23:55 PM 43.4850 -126.6860 154° Southeast 503 579 37,000  Level FlightAware ADS-B
Fri 06:24:53 PM 43.3720 -126.6090 154° Southeast 503 579 37,000  Level FlightAware ADS-B
Fri 06:25:30 PM 43.3070 -126.5640 153° Southeast 503 579 37,000  Level FlightAware ADS-B
Fri 06:26:06 PM 43.2430 -126.5190 153° Southeast 503 579 37,000  Level FlightAware ADS-B
Fri 06:26:54 PM 43.1590 -126.4600 153° Southeast 503 579 37,000  Level FlightAware ADS-B
Fri 06:27:31 PM 43.0940 -126.4150 153° Southeast 503 579 37,000  Level FlightAware ADS-B
Fri 06:28:18 PM 43.0110 -126.3570 153° Southeast 503 579 37,000  Level FlightAware ADS-B
Fri 06:28:54 PM 42.9470 -126.3130 153° Southeast 503 579 37,000  Level FlightAware ADS-B
Fri 06:29:40 PM 42.8660 -126.2560 153° Southeast 503 579 37,000  Level FlightAware ADS-B
Fri 06:30:42 PM 42.7570 -126.1800 153° Southeast 503 579 37,000  Level FlightAware ADS-B
Fri 06:31:31 PM 42.6710 -126.1200 153° Southeast 503 579 37,000  Level FlightAware ADS-B
Fri 06:32:07 PM 42.6070 -126.0760 153° Southeast 503 579 37,000  Level FlightAware ADS-B
Fri 06:32:56 PM 42.5210 -126.0170 153° Southeast 503 579 37,000  Level FlightAware ADS-B
Fri 06:33:32 PM 42.4570 -125.9730 153° Southeast 503 579 37,000  Level FlightAware ADS-B
Fri 06:34:19 PM 42.3740 -125.9160 153° Southeast 503 579 37,000  Level FlightAware ADS-B
Fri 06:35:15 PM 42.1275 -125.6047 153° Southeast 511 588 37,000  Level Seattle Center
Fri 06:36:16 PM 42.0122 -125.4911 144° Southeast 513 590 37,000  Level Seattle Center
Fri 06:37:17 PM 41.8981 -125.3800 144° Southeast 510 587 37,000  Level Seattle Center
Fri 06:38:18 PM 41.7822 -125.2728 145° Southeast 507 583 37,000  Level Seattle Center
Fri 06:39:18 PM 41.6683 -125.1614 144° Southeast 506 582 37,000  Level Seattle Center
Fri 06:40:19 PM 41.5519 -125.0525 145° Southeast 509 586 37,000  Level Seattle Center
Fri 06:41:20 PM 41.4136 -124.9208 144° Southeast 509 586 37,000  Level Seattle Center
Fri 06:47:27 PM 40.7070 -124.2670 144° Southeast 498 573 37,000  Level FlightAware ADS-B
Fri 06:48:06 PM 40.6250 -124.2130 153° Southeast 499 574 37,000  Level FlightAware ADS-B
Fri 06:48:52 PM 40.5300 -124.1600 157° South 498 573 37,000  Level FlightAware ADS-B
Fri 06:49:28 PM 40.4660 -124.1210 155° Southeast 499 574 37,000  Level FlightAware ADS-B
Fri 06:50:04 PM 40.4020 -124.0820 155° Southeast 499 574 37,000  Level FlightAware ADS-B
Fri 06:50:47 PM 40.2920 -124.0260 159° South 487 560 37,000  Level FlightAware ADS-B
Fri 06:51:31 PM 40.2020 -123.9780 158° South 484 557 37,000  Level FlightAware ADS-B
Fri 06:52:07 PM 40.1240 -123.9360 158° South 484 557 37,000  Level FlightAware ADS-B
Fri 06:52:42 PM 40.0550 -123.8990 158° South 484 557 37,000  Level FlightAware ADS-B
Fri 06:53:27 PM 39.9590 -123.8480 158° South 484 557 37,000  Level FlightAware ADS-B
Fri 06:54:08 PM 39.8710 -123.8000 157° South 485 558 37,000  Level FlightAware ADS-B
Fri 06:54:56 PM 39.7720 -123.7470 158° South 486 559 37,000 -767 Level FlightAware ADS-B
Fri 06:55:34 PM 39.6910 -123.7040 158° South 478 550 35,900 -1,605 Descending FlightAware ADS-B
Fri 06:56:22 PM 39.5930 -123.6520 158° South 488 562 34,700 -1,500 Descending FlightAware ADS-B
Fri 06:56:54 PM 39.5230 -123.6150 158° South 490 564 33,900 -1,500 Descending FlightAware ADS-B
Fri 06:57:38 PM 39.4320 -123.5670 158° South 479 551 32,800 -1,500 Descending FlightAware ADS-B
Fri 06:58:18 PM 39.3520 -123.5250 158° South 463 533 31,800 -1,462 Descending FlightAware ADS-B
Fri 06:58:56 PM 39.2780 -123.4860 158° South 456 525 30,900 -1,462 Descending FlightAware ADS-B
Fri 06:59:36 PM 39.1980 -123.4440 158° South 452 520 29,900 -1,556 Descending FlightAware ADS-B
Fri 07:00:17 PM 39.1220 -123.4040 158° South 443 510 28,800 -1,537 Descending FlightAware ADS-B
Fri 07:00:58 PM 39.0430 -123.3630 158° South 441 507 27,800 -1,537 Descending FlightAware ADS-B
Fri 07:01:39 PM 38.9670 -123.3230 158° South 434 499 26,700 -1,714 Descending FlightAware ADS-B
Fri 07:02:22 PM 38.8860 -123.2810 158° South 431 496 25,400 -1,793 Descending FlightAware ADS-B
Fri 07:03:06 PM 38.8060 -123.2390 158° South 420 483 24,100 -1,800 Descending FlightAware ADS-B
Fri 07:03:42 PM 38.7410 -123.2060 158° South 415 478 23,000 -1,769 Descending FlightAware ADS-B
Fri 07:04:24 PM 38.6670 -123.1680 158° South 405 466 21,800 -1,756 Descending FlightAware ADS-B
Fri 07:05:04 PM 38.5980 -123.1320 158° South 399 459 20,600 -1,816 Descending FlightAware ADS-B
Fri 07:05:40 PM 38.5360 -123.1000 158° South 396 456 19,500 -1,800 Descending FlightAware ADS-B
Fri 07:06:24 PM 38.4630 -123.0630 158° South 388 447 18,200 -1,786 Descending FlightAware ADS-B
Fri 07:07:04 PM 38.3960 -123.0290 158° South 379 436 17,000 -1,786 Descending FlightAware ADS-B
Fri 07:07:48 PM 38.3250 -122.9920 158° South 376 433 15,700 -1,786 Descending FlightAware ADS-B
Fri 07:08:28 PM 38.2610 -122.9600 159° South 364 419 14,500 -1,786 Descending FlightAware ADS-B
Fri 07:09:12 PM 38.1940 -122.9250 158° South 358 412 13,200 -1,500 Descending FlightAware ADS-B
Fri 07:09:52 PM 38.1320 -122.8940 159° South 356 410 12,400 -889 Descending FlightAware ADS-B
Fri 07:10:33 PM 38.0720 -122.8580 155° Southeast 358 412 12,000 -583 Descending FlightAware ADS-B
Fri 07:11:04 PM 38.0300 -122.8170 142° Southeast 358 412 11,700 -532 Descending FlightAware ADS-B
Fri 07:11:52 PM 37.9710 -122.7490 138° Southeast 360 414 11,300 -404 Descending FlightAware ADS-B
Fri 07:12:33 PM 37.9200 -122.6940 140° Southeast 357 411 11,100 -143 Descending FlightAware ADS-B
Fri 07:13:16 PM 37.8670 -122.6370 140° Southeast 352 405 11,100 72 Level FlightAware ADS-B
Fri 07:13:56 PM 37.8160 -122.5840 141° Southeast 352 405 11,200  Climbing FlightAware ADS-B
Fri 07:14:37 PM 37.7660 -122.5300 140° Southeast 331 381 11,100 -78 Descending FlightAware ADS-B
Fri 07:15:13 PM 37.7249 -122.4860 140° Southeast 291 335 11,100  Level FlightAware ADS-B
Fri 07:15:54 PM 37.6850 -122.4430 140° Southeast 279 321 11,100  Level FlightAware ADS-B
Fri 07:16:08 PM 37.6703 -122.4280 141° Southeast 279 321 11,100  Level FlightAware ADS-B
Fri 07:16:36 PM 37.6435 -122.3990 139° Southeast 277 319 11,100 -136 Level FlightAware ADS-B
Fri 07:16:52 PM 37.6274 -122.3830 142° Southeast 273 314 11,000 -545 Descending FlightAware ADS-B
Fri 07:16:58 PM 37.6216 -122.3770 141° Southeast 272 313 10,900 -1,429 Descending FlightAware ADS-B
Fri 07:17:13 PM 37.6052 -122.3660 152° Southeast 272 313 10,500 -2,200 Descending FlightAware ADS-B
Fri 07:17:28 PM 37.5881 -122.3550 153° Southeast 277 319 9,800 -2,600 Descending FlightAware ADS-B
Fri 07:17:43 PM 37.5709 -122.3440 153° Southeast 279 321 9,200 -1,800 Descending FlightAware ADS-B
Fri 07:17:58 PM 37.5535 -122.3330 153° Southeast 270 311 8,900 -1,742 Descending FlightAware ADS-B
Fri 07:18:14 PM 37.5356 -122.3210 152° Southeast 269 310 8,300 -2,129 Descending FlightAware ADS-B
Fri 07:18:29 PM 37.5190 -122.3110 154° Southeast 267 307 7,800 -2,000 Descending FlightAware ADS-B
Fri 07:18:38 PM 37.5089 -122.3040 151° Southeast 267 307 7,500 -1,636 Descending FlightAware ADS-B
Fri 07:18:51 PM 37.4956 -122.2960 154° Southeast 262 302 7,200 -1,667 Descending FlightAware ADS-B
Fri 07:18:56 PM 37.4904 -122.2920 149° Southeast 260 299 7,000 -2,250 Descending FlightAware ADS-B
Fri 07:18:59 PM 37.4874 -122.2890 142° Southeast 259 298 6,900 -1,714 Descending FlightAware ADS-B
Fri 07:19:03 PM 37.4836 -122.2850 140° Southeast 260 299 6,800 -1,714 Descending FlightAware ADS-B
Fri 07:19:06 PM 37.4809 -122.2820 139° Southeast 260 299 6,700 -2,000 Descending FlightAware ADS-B
Fri 07:19:09 PM 37.4785 -122.2780 127° Southeast 259 298 6,600 -2,571 Descending FlightAware ADS-B
Fri 07:19:13 PM 37.4759 -122.2730 123° Southeast 259 298 6,400 -2,250 Descending FlightAware ADS-B
Fri 07:19:17 PM 37.4741 -122.2680 114° Southeast 258 297 6,300 -1,895 Descending FlightAware ADS-B
Fri 07:19:32 PM 37.4668 -122.2480 115° Southeast 253 291 5,800 -1,826 Descending FlightAware ADS-B
Fri 07:19:40 PM 37.4629 -122.2370 114° Southeast 250 288 5,600 -1,667 Descending FlightAware ADS-B
Fri 07:19:50 PM 37.4578 -122.2240 116° Southeast 247 284 5,300 -1,765 Descending FlightAware ADS-B
Fri 07:19:57 PM 37.4548 -122.2150 113° Southeast 245 282 5,100 -1,091 Descending FlightAware ADS-B
Fri 07:20:01 PM 37.4531 -122.2100 113° Southeast 242 278 5,100  Level FlightAware ADS-B
Fri 07:20:05 PM 37.4520 -122.2040 103° East 236 272 5,100  Level FlightAware ADS-B
Fri 07:20:08 PM 37.4515 -122.2000 99° East 231 266 5,100  Level FlightAware ADS-B
Fri 07:20:11 PM 37.4514 -122.1960 92° East 226 260 5,100  Level FlightAware ADS-B
Fri 07:20:15 PM 37.4518 -122.1910 84° East 222 255 5,100 857 Level FlightAware ADS-B
Fri 07:20:18 PM 37.4525 -122.1870 78° East 221 254 5,200 857 Climbing FlightAware ADS-B
Fri 07:20:22 PM 37.4539 -122.1820 71° East 220 253 5,200  Level FlightAware ADS-B
Fri 07:20:26 PM 37.4556 -122.1780 62° Northeast 219 252 5,200  Level FlightAware ADS-B
Fri 07:20:31 PM 37.4581 -122.1730 58° Northeast 218 251 5,200  Level FlightAware ADS-B
Fri 07:20:44 PM 37.4651 -122.1590 58° Northeast 218 251 5,200 -333 Level FlightAware ADS-B
Fri 07:20:49 PM 37.4682 -122.1540 52° Northeast 212 244 5,100 -667 Descending FlightAware ADS-B
Fri 07:20:53 PM 37.4709 -122.1500 50° Northeast 204 235 5,100  Level FlightAware ADS-B
Fri 07:20:57 PM 37.4742 -122.1470 36° Northeast 197 227 5,100  Level FlightAware ADS-B
Fri 07:21:01 PM 37.4773 -122.1460 14° North 192 221 5,100 -750 Level FlightAware ADS-B
Fri 07:21:05 PM 37.4810 -122.1440 23° Northeast 189 217 5,000 -750 Descending FlightAware ADS-B
Fri 07:21:09 PM 37.4837 -122.1440 360° North 184 212 5,000 -857 Level FlightAware ADS-B
Fri 07:21:12 PM 37.4866 -122.1440 360° North 182 209 4,900 -1,500 Descending FlightAware ADS-B
Fri 07:21:17 PM 37.4906 -122.1450 349° North 181 208 4,800 -1,765 Descending FlightAware ADS-B
Fri 07:21:29 PM 37.5007 -122.1470 351° North 186 214 4,400 -1,714 Descending FlightAware ADS-B
Fri 07:21:38 PM 37.5084 -122.1500 343° North 190 219 4,200 -1,412 Descending FlightAware ADS-B
Fri 07:21:46 PM 37.5153 -122.1520 347° North 194 223 4,000 -1,636 Descending FlightAware ADS-B
Fri 07:21:49 PM 37.5180 -122.1530 344° North 194 223 3,900 -1,714 Descending FlightAware ADS-B
Fri 07:21:53 PM 37.5206 -122.1550 329° Northwest 193 222 3,800 -1,500 Descending FlightAware ADS-B
Fri 07:21:57 PM 37.5241 -122.1570 336° Northwest 192 221 3,700 -1,714 Descending FlightAware ADS-B
Fri 07:22:00 PM 37.5260 -122.1590 320° Northwest 191 220 3,600 -857 Descending FlightAware ADS-B
Fri 07:22:04 PM 37.5282 -122.1630 305° West 189 217 3,600 -857 Level FlightAware ADS-B
Fri 07:22:07 PM 37.5300 -122.1660 307° West 187 215 3,500 -1,091 Descending FlightAware ADS-B
Fri 07:22:15 PM 37.5331 -122.1730 299° West 188 216 3,400 -947 Descending FlightAware ADS-B
Fri 07:22:26 PM 37.5376 -122.1840 297° West 189 217 3,200 -923 Descending FlightAware ADS-B
Fri 07:22:41 PM 37.5439 -122.1980 300° West 180 207 3,000 -818 Descending FlightAware ADS-B
Fri 07:22:48 PM 37.5467 -122.2040 300° West 174 200 2,900 -783 Descending FlightAware ADS-B
Fri 07:23:04 PM 37.5526 -122.2180 298° West 170 196 2,700 -692 Descending FlightAware ADS-B
Fri 07:23:14 PM 37.5561 -122.2260 299° West 166 191 2,600 -720 Descending FlightAware ADS-B
Fri 07:23:29 PM 37.5616 -122.2390 298° West 163 188 2,400 -800 Descending FlightAware ADS-B
Fri 07:23:44 PM 37.5670 -122.2520 298° West 162 186 2,200 -857 Descending FlightAware ADS-B
Fri 07:23:57 PM 37.5715 -122.2630 297° West 157 181 2,000 -571 Descending FlightAware ADS-B
Fri 07:24:05 PM 37.5742 -122.2690 300° West 152 175 2,000 -400 Level FlightAware ADS-B
Fri 07:24:12 PM 37.5764 -122.2750 295° West 150 173 1,900 -857 Descending FlightAware ADS-B
Fri 07:24:26 PM 37.5809 -122.2850 300° West 147 169 1,700 -1,034 Descending FlightAware ADS-B
Fri 07:24:41 PM 37.5857 -122.2970 297° West 147 169 1,400 -1,091 Descending FlightAware ADS-B
Fri 07:24:48 PM 37.5880 -122.3020 300° West 146 168 1,300 -1,034 Descending FlightAware ADS-B
Fri 07:25:10 PM 37.5949 -122.3180 299° West 147 169 900 -973 Descending FlightAware ADS-B
Fri 07:25:25 PM 37.5998 -122.3300 297° West 144 166 700 -774 Descending FlightAware ADS-B
Fri 07:25:41 PM 37.6045 -122.3410 298° West 140 161 500 -750 Descending FlightAware ADS-B
Fri 07:25:49 PM 37.6069 -122.3470 297° West 141 162 400 -706 Descending FlightAware ADS-B
Fri 07:25:58 PM 37.6098 -122.3540 298° West 142 163 300 -632 Descending FlightAware ADS-B
Fri 07:26:08 PM 37.6128 -122.3610 298° West 140 161 200 -600 Descending FlightAware ADS-B

Login

Don't have an account? Register now (free) for customized features, flight alerts, and more!